sensor_id;sensor_type;location;lat;lon;timestamp;P1;durP1;ratioP1;P2;durP2;ratioP2
20734;SDS011;10528;52.124;5.196;2023-04-25T00:00:14;13.52;;;2.95;;
20734;SDS011;10528;52.124;5.196;2023-04-25T00:02:41;11.98;;;3.33;;
20734;SDS011;10528;52.124;5.196;2023-04-25T00:05:09;12.82;;;3.60;;
20734;SDS011;10528;52.124;5.196;2023-04-25T00:07:37;13.55;;;3.13;;
20734;SDS011;10528;52.124;5.196;2023-04-25T00:10:04;14.43;;;3.45;;
20734;SDS011;10528;52.124;5.196;2023-04-25T00:12:32;14.75;;;3.55;;
20734;SDS011;10528;52.124;5.196;2023-04-25T00:14:59;12.48;;;3.50;;
20734;SDS011;10528;52.124;5.196;2023-04-25T00:17:26;14.00;;;3.45;;
20734;SDS011;10528;52.124;5.196;2023-04-25T00:19:53;17.10;;;4.07;;
20734;SDS011;10528;52.124;5.196;2023-04-25T00:22:20;7.95;;;3.38;;
20734;SDS011;10528;52.124;5.196;2023-04-25T00:24:47;12.05;;;4.05;;
20734;SDS011;10528;52.124;5.196;2023-04-25T00:27:14;12.02;;;3.17;;
20734;SDS011;10528;52.124;5.196;2023-04-25T00:29:41;12.15;;;3.22;;
20734;SDS011;10528;52.124;5.196;2023-04-25T00:32:08;15.88;;;3.92;;
20734;SDS011;10528;52.124;5.196;2023-04-25T00:34:36;7.88;;;2.78;;
20734;SDS011;10528;52.124;5.196;2023-04-25T00:37:02;8.45;;;3.28;;
20734;SDS011;10528;52.124;5.196;2023-04-25T00:39:29;13.23;;;3.72;;
20734;SDS011;10528;52.124;5.196;2023-04-25T00:41:56;14.02;;;3.90;;
20734;SDS011;10528;52.124;5.196;2023-04-25T00:44:24;14.48;;;3.20;;
20734;SDS011;10528;52.124;5.196;2023-04-25T00:46:53;12.38;;;3.15;;
20734;SDS011;10528;52.124;5.196;2023-04-25T00:49:20;9.23;;;2.75;;
20734;SDS011;10528;52.124;5.196;2023-04-25T00:51:47;16.88;;;3.15;;
20734;SDS011;10528;52.124;5.196;2023-04-25T00:54:14;9.20;;;3.00;;
20734;SDS011;10528;52.124;5.196;2023-04-25T00:56:42;10.52;;;3.17;;
20734;SDS011;10528;52.124;5.196;2023-04-25T00:59:11;9.27;;;3.22;;
20734;SDS011;10528;52.124;5.196;2023-04-25T01:01:39;21.50;;;3.35;;
20734;SDS011;10528;52.124;5.196;2023-04-25T01:04:07;10.10;;;3.00;;
20734;SDS011;10528;52.124;5.196;2023-04-25T01:06:34;7.35;;;3.00;;
20734;SDS011;10528;52.124;5.196;2023-04-25T01:09:02;10.93;;;3.10;;
20734;SDS011;10528;52.124;5.196;2023-04-25T01:11:30;9.82;;;2.85;;
20734;SDS011;10528;52.124;5.196;2023-04-25T01:13:58;11.25;;;3.17;;
20734;SDS011;10528;52.124;5.196;2023-04-25T01:16:25;8.13;;;2.75;;
20734;SDS011;10528;52.124;5.196;2023-04-25T01:18:53;9.43;;;2.92;;
20734;SDS011;10528;52.124;5.196;2023-04-25T01:21:21;11.60;;;2.42;;
20734;SDS011;10528;52.124;5.196;2023-04-25T01:23:48;9.73;;;2.88;;
20734;SDS011;10528;52.124;5.196;2023-04-25T01:26:16;11.15;;;2.67;;
20734;SDS011;10528;52.124;5.196;2023-04-25T01:28:43;10.15;;;3.13;;
20734;SDS011;10528;52.124;5.196;2023-04-25T01:31:11;8.18;;;3.45;;
20734;SDS011;10528;52.124;5.196;2023-04-25T01:33:39;11.40;;;3.33;;
20734;SDS011;10528;52.124;5.196;2023-04-25T01:36:06;11.85;;;2.80;;
20734;SDS011;10528;52.124;5.196;2023-04-25T01:38:34;11.57;;;3.25;;
20734;SDS011;10528;52.124;5.196;2023-04-25T01:41:02;13.85;;;3.22;;
20734;SDS011;10528;52.124;5.196;2023-04-25T01:43:29;8.88;;;2.63;;
20734;SDS011;10528;52.124;5.196;2023-04-25T01:45:56;12.35;;;3.00;;
20734;SDS011;10528;52.124;5.196;2023-04-25T01:48:23;11.32;;;3.00;;
20734;SDS011;10528;52.124;5.196;2023-04-25T01:50:50;7.63;;;3.00;;
20734;SDS011;10528;52.124;5.196;2023-04-25T01:53:17;8.75;;;2.92;;
20734;SDS011;10528;52.124;5.196;2023-04-25T01:55:45;9.40;;;3.35;;
20734;SDS011;10528;52.124;5.196;2023-04-25T01:58:14;9.90;;;3.60;;
20734;SDS011;10528;52.124;5.196;2023-04-25T02:01:04;10.13;;;3.30;;
20734;SDS011;10528;52.124;5.196;2023-04-25T02:03:39;8.45;;;3.28;;
20734;SDS011;10528;52.124;5.196;2023-04-25T02:06:12;9.57;;;3.15;;
20734;SDS011;10528;52.124;5.196;2023-04-25T02:08:42;10.45;;;3.58;;
20734;SDS011;10528;52.124;5.196;2023-04-25T02:11:11;12.52;;;3.63;;
20734;SDS011;10528;52.124;5.196;2023-04-25T02:13:44;13.27;;;3.53;;
20734;SDS011;10528;52.124;5.196;2023-04-25T02:16:34;16.17;;;3.97;;
20734;SDS011;10528;52.124;5.196;2023-04-25T02:19:02;6.50;;;3.10;;
20734;SDS011;10528;52.124;5.196;2023-04-25T02:21:29;10.25;;;2.97;;
20734;SDS011;10528;52.124;5.196;2023-04-25T02:23:56;10.93;;;3.70;;
20734;SDS011;10528;52.124;5.196;2023-04-25T02:26:27;13.70;;;3.83;;
20734;SDS011;10528;52.124;5.196;2023-04-25T02:28:54;11.15;;;4.22;;
20734;SDS011;10528;52.124;5.196;2023-04-25T02:31:21;9.73;;;3.00;;
20734;SDS011;10528;52.124;5.196;2023-04-25T02:33:49;13.13;;;3.67;;
20734;SDS011;10528;52.124;5.196;2023-04-25T02:36:16;9.25;;;3.22;;
20734;SDS011;10528;52.124;5.196;2023-04-25T02:38:43;11.88;;;3.60;;
20734;SDS011;10528;52.124;5.196;2023-04-25T02:41:10;8.35;;;3.47;;
20734;SDS011;10528;52.124;5.196;2023-04-25T02:43:37;10.43;;;3.42;;
20734;SDS011;10528;52.124;5.196;2023-04-25T02:46:04;9.30;;;3.40;;
20734;SDS011;10528;52.124;5.196;2023-04-25T02:48:31;9.68;;;3.10;;
20734;SDS011;10528;52.124;5.196;2023-04-25T02:50:58;10.80;;;3.05;;
20734;SDS011;10528;52.124;5.196;2023-04-25T02:53:24;9.63;;;3.50;;
20734;SDS011;10528;52.124;5.196;2023-04-25T02:55:53;10.63;;;3.10;;
20734;SDS011;10528;52.124;5.196;2023-04-25T02:58:20;7.30;;;2.88;;
20734;SDS011;10528;52.124;5.196;2023-04-25T03:00:50;7.57;;;3.38;;
20734;SDS011;10528;52.124;5.196;2023-04-25T03:03:17;11.82;;;4.07;;
20734;SDS011;10528;52.124;5.196;2023-04-25T03:05:48;10.95;;;3.60;;
20734;SDS011;10528;52.124;5.196;2023-04-25T03:08:21;11.90;;;3.40;;
20734;SDS011;10528;52.124;5.196;2023-04-25T03:10:48;10.38;;;3.25;;
20734;SDS011;10528;52.124;5.196;2023-04-25T03:13:17;11.23;;;3.20;;
20734;SDS011;10528;52.124;5.196;2023-04-25T03:15:45;8.65;;;3.10;;
20734;SDS011;10528;52.124;5.196;2023-04-25T03:18:12;10.55;;;3.15;;
20734;SDS011;10528;52.124;5.196;2023-04-25T03:20:39;14.23;;;4.00;;
20734;SDS011;10528;52.124;5.196;2023-04-25T03:23:07;7.78;;;2.92;;
20734;SDS011;10528;52.124;5.196;2023-04-25T03:25:35;11.93;;;3.15;;
20734;SDS011;10528;52.124;5.196;2023-04-25T03:28:03;10.52;;;2.83;;
20734;SDS011;10528;52.124;5.196;2023-04-25T03:30:30;10.00;;;2.40;;
20734;SDS011;10528;52.124;5.196;2023-04-25T03:32:57;10.77;;;2.70;;
20734;SDS011;10528;52.124;5.196;2023-04-25T03:35:24;9.65;;;2.53;;
20734;SDS011;10528;52.124;5.196;2023-04-25T03:37:51;7.07;;;2.15;;
20734;SDS011;10528;52.124;5.196;2023-04-25T03:40:24;10.00;;;2.40;;
20734;SDS011;10528;52.124;5.196;2023-04-25T03:43:09;9.73;;;2.30;;
20734;SDS011;10528;52.124;5.196;2023-04-25T03:45:38;8.00;;;2.38;;
20734;SDS011;10528;52.124;5.196;2023-04-25T03:48:05;7.53;;;2.13;;
20734;SDS011;10528;52.124;5.196;2023-04-25T03:50:32;12.18;;;1.83;;
20734;SDS011;10528;52.124;5.196;2023-04-25T03:52:59;9.40;;;2.30;;
20734;SDS011;10528;52.124;5.196;2023-04-25T03:55:30;5.82;;;1.85;;
20734;SDS011;10528;52.124;5.196;2023-04-25T03:57:57;6.43;;;1.90;;
20734;SDS011;10528;52.124;5.196;2023-04-25T04:00:25;7.35;;;1.70;;
20734;SDS011;10528;52.124;5.196;2023-04-25T04:02:52;5.75;;;1.90;;
20734;SDS011;10528;52.124;5.196;2023-04-25T04:05:19;8.32;;;1.95;;
20734;SDS011;10528;52.124;5.196;2023-04-25T04:07:52;9.85;;;2.42;;
20734;SDS011;10528;52.124;5.196;2023-04-25T04:10:20;8.20;;;1.90;;
20734;SDS011;10528;52.124;5.196;2023-04-25T04:12:48;10.02;;;4.13;;
20734;SDS011;10528;52.124;5.196;2023-04-25T04:15:16;10.85;;;4.35;;
20734;SDS011;10528;52.124;5.196;2023-04-25T04:17:47;8.77;;;3.42;;
20734;SDS011;10528;52.124;5.196;2023-04-25T04:20:17;7.20;;;4.00;;
20734;SDS011;10528;52.124;5.196;2023-04-25T04:22:43;7.75;;;3.40;;
20734;SDS011;10528;52.124;5.196;2023-04-25T04:25:12;7.80;;;2.30;;
20734;SDS011;10528;52.124;5.196;2023-04-25T04:27:58;8.60;;;1.85;;
20734;SDS011;10528;52.124;5.196;2023-04-25T04:30:36;8.32;;;3.28;;
20734;SDS011;10528;52.124;5.196;2023-04-25T04:33:06;9.10;;;2.40;;
20734;SDS011;10528;52.124;5.196;2023-04-25T04:35:33;14.10;;;2.42;;
20734;SDS011;10528;52.124;5.196;2023-04-25T04:38:01;5.93;;;1.80;;
20734;SDS011;10528;52.124;5.196;2023-04-25T04:40:32;4.18;;;1.90;;
20734;SDS011;10528;52.124;5.196;2023-04-25T04:43:11;8.00;;;2.03;;
20734;SDS011;10528;52.124;5.196;2023-04-25T04:45:57;7.18;;;1.80;;
20734;SDS011;10528;52.124;5.196;2023-04-25T04:48:46;8.93;;;1.98;;
20734;SDS011;10528;52.124;5.196;2023-04-25T04:51:34;6.93;;;1.80;;
20734;SDS011;10528;52.124;5.196;2023-04-25T04:54:10;8.00;;;1.88;;
20734;SDS011;10528;52.124;5.196;2023-04-25T04:56:50;9.80;;;1.98;;
20734;SDS011;10528;52.124;5.196;2023-04-25T04:59:50;7.38;;;2.15;;
20734;SDS011;10528;52.124;5.196;2023-04-25T05:02:47;8.95;;;2.25;;
20734;SDS011;10528;52.124;5.196;2023-04-25T05:05:50;7.25;;;2.15;;
20734;SDS011;10528;52.124;5.196;2023-04-25T05:08:40;7.25;;;2.17;;
20734;SDS011;10528;52.124;5.196;2023-04-25T05:11:35;12.05;;;2.05;;
20734;SDS011;10528;52.124;5.196;2023-04-25T05:14:12;8.68;;;2.40;;
20734;SDS011;10528;52.124;5.196;2023-04-25T05:16:46;6.85;;;2.42;;
20734;SDS011;10528;52.124;5.196;2023-04-25T05:19:29;11.13;;;2.20;;
20734;SDS011;10528;52.124;5.196;2023-04-25T05:22:15;7.78;;;2.00;;
20734;SDS011;10528;52.124;5.196;2023-04-25T05:25:06;5.00;;;1.75;;
20734;SDS011;10528;52.124;5.196;2023-04-25T05:27:50;6.40;;;1.90;;
20734;SDS011;10528;52.124;5.196;2023-04-25T05:30:37;8.20;;;2.00;;
20734;SDS011;10528;52.124;5.196;2023-04-25T05:33:08;6.60;;;1.50;;
20734;SDS011;10528;52.124;5.196;2023-04-25T05:35:35;8.82;;;2.10;;
20734;SDS011;10528;52.124;5.196;2023-04-25T05:38:02;3.53;;;1.40;;
20734;SDS011;10528;52.124;5.196;2023-04-25T05:40:58;10.55;;;1.90;;
20734;SDS011;10528;52.124;5.196;2023-04-25T05:43:47;7.18;;;1.77;;
20734;SDS011;10528;52.124;5.196;2023-04-25T05:46:36;6.15;;;1.50;;
20734;SDS011;10528;52.124;5.196;2023-04-25T05:49:24;9.52;;;1.60;;
20734;SDS011;10528;52.124;5.196;2023-04-25T05:52:29;4.63;;;1.45;;
20734;SDS011;10528;52.124;5.196;2023-04-25T05:55:07;6.57;;;1.73;;
20734;SDS011;10528;52.124;5.196;2023-04-25T05:57:35;7.15;;;1.38;;
20734;SDS011;10528;52.124;5.196;2023-04-25T06:00:02;7.30;;;1.83;;
20734;SDS011;10528;52.124;5.196;2023-04-25T06:02:42;6.18;;;1.52;;
20734;SDS011;10528;52.124;5.196;2023-04-25T06:05:12;10.00;;;1.75;;
20734;SDS011;10528;52.124;5.196;2023-04-25T06:07:39;6.07;;;1.80;;
20734;SDS011;10528;52.124;5.196;2023-04-25T06:10:06;6.05;;;1.70;;
20734;SDS011;10528;52.124;5.196;2023-04-25T06:12:34;8.98;;;1.90;;
20734;SDS011;10528;52.124;5.196;2023-04-25T06:15:02;8.48;;;1.80;;
20734;SDS011;10528;52.124;5.196;2023-04-25T06:17:49;6.75;;;1.90;;
20734;SDS011;10528;52.124;5.196;2023-04-25T06:20:16;8.05;;;1.95;;
20734;SDS011;10528;52.124;5.196;2023-04-25T06:22:43;7.07;;;1.48;;
20734;SDS011;10528;52.124;5.196;2023-04-25T06:25:09;4.95;;;1.70;;
20734;SDS011;10528;52.124;5.196;2023-04-25T06:27:37;7.82;;;1.92;;
20734;SDS011;10528;52.124;5.196;2023-04-25T06:30:04;8.15;;;1.50;;
20734;SDS011;10528;52.124;5.196;2023-04-25T06:32:33;10.27;;;1.75;;
20734;SDS011;10528;52.124;5.196;2023-04-25T06:35:00;8.63;;;1.83;;
20734;SDS011;10528;52.124;5.196;2023-04-25T06:37:27;6.72;;;1.48;;
20734;SDS011;10528;52.124;5.196;2023-04-25T06:39:54;4.82;;;1.33;;
20734;SDS011;10528;52.124;5.196;2023-04-25T06:42:21;8.80;;;1.70;;
20734;SDS011;10528;52.124;5.196;2023-04-25T06:44:52;7.57;;;1.63;;
20734;SDS011;10528;52.124;5.196;2023-04-25T06:47:20;6.55;;;1.70;;
20734;SDS011;10528;52.124;5.196;2023-04-25T06:49:48;5.55;;;1.40;;
20734;SDS011;10528;52.124;5.196;2023-04-25T06:52:15;10.05;;;2.00;;
20734;SDS011;10528;52.124;5.196;2023-04-25T06:54:44;6.45;;;1.52;;
20734;SDS011;10528;52.124;5.196;2023-04-25T06:57:33;8.70;;;1.92;;
20734;SDS011;10528;52.124;5.196;2023-04-25T07:00:16;10.75;;;2.25;;
20734;SDS011;10528;52.124;5.196;2023-04-25T07:02:44;10.20;;;1.98;;
20734;SDS011;10528;52.124;5.196;2023-04-25T07:05:11;8.02;;;1.58;;
20734;SDS011;10528;52.124;5.196;2023-04-25T07:07:38;9.25;;;1.77;;
20734;SDS011;10528;52.124;5.196;2023-04-25T07:10:05;9.68;;;1.63;;
20734;SDS011;10528;52.124;5.196;2023-04-25T07:12:32;9.98;;;2.25;;
20734;SDS011;10528;52.124;5.196;2023-04-25T07:14:59;5.35;;;1.38;;
20734;SDS011;10528;52.124;5.196;2023-04-25T07:17:32;9.48;;;1.55;;
20734;SDS011;10528;52.124;5.196;2023-04-25T07:19:59;9.95;;;1.67;;
20734;SDS011;10528;52.124;5.196;2023-04-25T07:22:27;8.55;;;1.52;;
20734;SDS011;10528;52.124;5.196;2023-04-25T07:24:54;5.55;;;1.48;;
20734;SDS011;10528;52.124;5.196;2023-04-25T07:27:24;12.65;;;1.60;;
20734;SDS011;10528;52.124;5.196;2023-04-25T07:29:59;6.53;;;1.50;;
20734;SDS011;10528;52.124;5.196;2023-04-25T07:32:26;9.30;;;2.50;;
20734;SDS011;10528;52.124;5.196;2023-04-25T07:34:53;7.85;;;1.60;;
20734;SDS011;10528;52.124;5.196;2023-04-25T07:37:20;10.45;;;1.80;;
20734;SDS011;10528;52.124;5.196;2023-04-25T07:39:59;7.45;;;1.55;;
20734;SDS011;10528;52.124;5.196;2023-04-25T07:42:26;7.30;;;1.50;;
20734;SDS011;10528;52.124;5.196;2023-04-25T07:44:53;7.30;;;1.42;;
20734;SDS011;10528;52.124;5.196;2023-04-25T07:47:20;9.38;;;1.42;;
20734;SDS011;10528;52.124;5.196;2023-04-25T07:49:48;7.57;;;1.27;;
20734;SDS011;10528;52.124;5.196;2023-04-25T07:52:15;6.40;;;1.30;;
20734;SDS011;10528;52.124;5.196;2023-04-25T07:54:47;8.55;;;1.50;;
20734;SDS011;10528;52.124;5.196;2023-04-25T07:57:19;5.70;;;1.13;;
20734;SDS011;10528;52.124;5.196;2023-04-25T07:59:48;5.15;;;1.45;;
20734;SDS011;10528;52.124;5.196;2023-04-25T08:02:15;9.90;;;1.30;;
20734;SDS011;10528;52.124;5.196;2023-04-25T08:04:43;7.45;;;1.27;;
20734;SDS011;10528;52.124;5.196;2023-04-25T08:07:12;3.63;;;1.05;;
20734;SDS011;10528;52.124;5.196;2023-04-25T08:09:47;5.78;;;1.20;;
20734;SDS011;10528;52.124;5.196;2023-04-25T08:12:22;6.90;;;1.55;;
20734;SDS011;10528;52.124;5.196;2023-04-25T08:14:49;8.38;;;1.67;;
20734;SDS011;10528;52.124;5.196;2023-04-25T08:17:17;8.95;;;1.33;;
20734;SDS011;10528;52.124;5.196;2023-04-25T08:19:44;4.80;;;1.30;;
20734;SDS011;10528;52.124;5.196;2023-04-25T08:22:20;10.98;;;1.83;;
20734;SDS011;10528;52.124;5.196;2023-04-25T08:24:53;5.68;;;1.70;;
20734;SDS011;10528;52.124;5.196;2023-04-25T08:27:20;6.78;;;1.83;;
20734;SDS011;10528;52.124;5.196;2023-04-25T08:29:47;10.85;;;1.65;;
20734;SDS011;10528;52.124;5.196;2023-04-25T08:32:14;8.43;;;1.70;;
20734;SDS011;10528;52.124;5.196;2023-04-25T08:34:52;7.45;;;1.30;;
20734;SDS011;10528;52.124;5.196;2023-04-25T08:37:21;3.70;;;1.08;;
20734;SDS011;10528;52.124;5.196;2023-04-25T08:39:54;6.03;;;1.35;;
20734;SDS011;10528;52.124;5.196;2023-04-25T08:42:48;7.28;;;1.23;;
20734;SDS011;10528;52.124;5.196;2023-04-25T08:45:18;9.90;;;1.63;;
20734;SDS011;10528;52.124;5.196;2023-04-25T08:47:45;4.97;;;1.10;;
20734;SDS011;10528;52.124;5.196;2023-04-25T08:50:15;5.57;;;1.17;;
20734;SDS011;10528;52.124;5.196;2023-04-25T08:52:44;8.10;;;1.25;;
20734;SDS011;10528;52.124;5.196;2023-04-25T08:55:13;5.95;;;1.10;;
20734;SDS011;10528;52.124;5.196;2023-04-25T08:57:42;5.63;;;1.27;;
20734;SDS011;10528;52.124;5.196;2023-04-25T09:00:12;6.18;;;1.08;;
20734;SDS011;10528;52.124;5.196;2023-04-25T09:02:42;5.07;;;1.00;;
20734;SDS011;10528;52.124;5.196;2023-04-25T09:05:12;4.88;;;0.98;;
20734;SDS011;10528;52.124;5.196;2023-04-25T09:07:41;3.42;;;0.88;;
20734;SDS011;10528;52.124;5.196;2023-04-25T09:10:08;7.07;;;1.20;;
20734;SDS011;10528;52.124;5.196;2023-04-25T09:12:37;4.70;;;0.90;;
20734;SDS011;10528;52.124;5.196;2023-04-25T09:15:07;3.72;;;1.10;;
20734;SDS011;10528;52.124;5.196;2023-04-25T09:18:03;8.00;;;1.08;;
20734;SDS011;10528;52.124;5.196;2023-04-25T09:20:34;6.60;;;1.30;;
20734;SDS011;10528;52.124;5.196;2023-04-25T09:23:27;6.15;;;1.10;;
20734;SDS011;10528;52.124;5.196;2023-04-25T09:25:54;4.43;;;0.88;;
20734;SDS011;10528;52.124;5.196;2023-04-25T09:28:25;4.65;;;0.95;;
20734;SDS011;10528;52.124;5.196;2023-04-25T09:30:57;10.27;;;1.25;;
20734;SDS011;10528;52.124;5.196;2023-04-25T09:33:40;7.70;;;1.20;;
20734;SDS011;10528;52.124;5.196;2023-04-25T09:36:10;4.32;;;1.35;;
20734;SDS011;10528;52.124;5.196;2023-04-25T09:39:03;6.63;;;1.52;;
20734;SDS011;10528;52.124;5.196;2023-04-25T09:41:52;10.57;;;1.50;;
20734;SDS011;10528;52.124;5.196;2023-04-25T09:44:24;10.43;;;1.00;;
20734;SDS011;10528;52.124;5.196;2023-04-25T09:46:52;5.63;;;1.17;;
20734;SDS011;10528;52.124;5.196;2023-04-25T09:49:22;6.90;;;0.95;;
20734;SDS011;10528;52.124;5.196;2023-04-25T09:52:08;6.35;;;1.00;;
20734;SDS011;10528;52.124;5.196;2023-04-25T09:54:49;4.57;;;0.90;;
20734;SDS011;10528;52.124;5.196;2023-04-25T09:57:24;4.00;;;1.02;;
20734;SDS011;10528;52.124;5.196;2023-04-25T09:59:54;9.75;;;1.83;;
20734;SDS011;10528;52.124;5.196;2023-04-25T10:02:24;6.75;;;1.23;;
20734;SDS011;10528;52.124;5.196;2023-04-25T10:04:56;5.20;;;0.95;;
20734;SDS011;10528;52.124;5.196;2023-04-25T10:07:30;7.03;;;1.48;;
20734;SDS011;10528;52.124;5.196;2023-04-25T10:09:59;6.85;;;1.20;;
20734;SDS011;10528;52.124;5.196;2023-04-25T10:12:29;4.85;;;1.20;;
20734;SDS011;10528;52.124;5.196;2023-04-25T10:14:58;5.82;;;1.27;;
20734;SDS011;10528;52.124;5.196;2023-04-25T10:17:27;4.13;;;1.10;;
20734;SDS011;10528;52.124;5.196;2023-04-25T10:19:54;3.83;;;0.88;;
20734;SDS011;10528;52.124;5.196;2023-04-25T10:25:08;5.80;;;1.00;;
20734;SDS011;10528;52.124;5.196;2023-04-25T10:27:36;4.20;;;0.90;;
20734;SDS011;10528;52.124;5.196;2023-04-25T10:30:04;3.15;;;0.90;;
20734;SDS011;10528;52.124;5.196;2023-04-25T10:32:38;4.13;;;0.98;;
20734;SDS011;10528;52.124;5.196;2023-04-25T10:37:56;4.25;;;1.15;;
20734;SDS011;10528;52.124;5.196;2023-04-25T10:40:24;4.47;;;1.20;;
20734;SDS011;10528;52.124;5.196;2023-04-25T10:42:55;5.03;;;1.20;;
20734;SDS011;10528;52.124;5.196;2023-04-25T10:45:22;2.45;;;0.98;;
20734;SDS011;10528;52.124;5.196;2023-04-25T10:47:49;5.22;;;1.48;;
20734;SDS011;10528;52.124;5.196;2023-04-25T10:50:16;5.25;;;1.00;;
20734;SDS011;10528;52.124;5.196;2023-04-25T10:52:43;3.65;;;0.80;;
20734;SDS011;10528;52.124;5.196;2023-04-25T10:55:11;6.88;;;0.98;;
20734;SDS011;10528;52.124;5.196;2023-04-25T10:57:41;6.60;;;1.60;;
20734;SDS011;10528;52.124;5.196;2023-04-25T11:00:13;5.75;;;1.50;;
20734;SDS011;10528;52.124;5.196;2023-04-25T11:02:47;5.00;;;1.48;;
20734;SDS011;10528;52.124;5.196;2023-04-25T11:05:20;3.55;;;1.30;;
20734;SDS011;10528;52.124;5.196;2023-04-25T11:08:10;3.53;;;1.10;;
20734;SDS011;10528;52.124;5.196;2023-04-25T11:10:38;3.53;;;0.60;;
20734;SDS011;10528;52.124;5.196;2023-04-25T11:13:06;2.28;;;0.80;;
20734;SDS011;10528;52.124;5.196;2023-04-25T11:15:33;5.65;;;1.02;;
20734;SDS011;10528;52.124;5.196;2023-04-25T11:18:00;3.90;;;1.10;;
20734;SDS011;10528;52.124;5.196;2023-04-25T11:20:27;4.68;;;1.30;;
20734;SDS011;10528;52.124;5.196;2023-04-25T11:22:57;5.65;;;1.33;;
20734;SDS011;10528;52.124;5.196;2023-04-25T11:25:30;4.22;;;1.50;;
20734;SDS011;10528;52.124;5.196;2023-04-25T11:27:59;4.85;;;0.90;;
20734;SDS011;10528;52.124;5.196;2023-04-25T11:30:27;4.75;;;1.00;;
20734;SDS011;10528;52.124;5.196;2023-04-25T11:32:56;3.75;;;0.95;;
20734;SDS011;10528;52.124;5.196;2023-04-25T11:35:23;4.82;;;1.27;;
20734;SDS011;10528;52.124;5.196;2023-04-25T11:37:51;4.75;;;1.02;;
20734;SDS011;10528;52.124;5.196;2023-04-25T11:40:19;4.15;;;1.10;;
20734;SDS011;10528;52.124;5.196;2023-04-25T11:42:46;7.35;;;1.10;;
20734;SDS011;10528;52.124;5.196;2023-04-25T11:45:13;3.13;;;1.20;;
20734;SDS011;10528;52.124;5.196;2023-04-25T11:47:41;2.95;;;0.77;;
20734;SDS011;10528;52.124;5.196;2023-04-25T11:50:08;4.95;;;0.73;;
20734;SDS011;10528;52.124;5.196;2023-04-25T11:52:39;2.88;;;0.80;;
20734;SDS011;10528;52.124;5.196;2023-04-25T11:55:15;3.55;;;0.85;;
20734;SDS011;10528;52.124;5.196;2023-04-25T11:57:45;2.38;;;0.73;;
20734;SDS011;10528;52.124;5.196;2023-04-25T12:00:17;2.58;;;0.80;;
20734;SDS011;10528;52.124;5.196;2023-04-25T12:02:51;1.83;;;0.68;;
20734;SDS011;10528;52.124;5.196;2023-04-25T12:05:23;2.53;;;0.82;;
20734;SDS011;10528;52.124;5.196;2023-04-25T12:08:12;3.45;;;1.10;;
20734;SDS011;10528;52.124;5.196;2023-04-25T12:10:41;3.08;;;1.02;;
20734;SDS011;10528;52.124;5.196;2023-04-25T12:13:20;2.53;;;1.20;;
20734;SDS011;10528;52.124;5.196;2023-04-25T12:15:53;4.07;;;1.30;;
20734;SDS011;10528;52.124;5.196;2023-04-25T12:18:25;2.72;;;1.00;;
20734;SDS011;10528;52.124;5.196;2023-04-25T12:20:55;3.00;;;1.45;;
20734;SDS011;10528;52.124;5.196;2023-04-25T12:23:25;4.85;;;1.60;;
20734;SDS011;10528;52.124;5.196;2023-04-25T12:25:54;7.72;;;1.00;;
20734;SDS011;10528;52.124;5.196;2023-04-25T12:28:25;4.80;;;1.40;;
20734;SDS011;10528;52.124;5.196;2023-04-25T12:33:32;4.97;;;1.50;;
20734;SDS011;10528;52.124;5.196;2023-04-25T12:36:02;4.95;;;1.10;;
20734;SDS011;10528;52.124;5.196;2023-04-25T12:38:38;3.88;;;1.00;;
20734;SDS011;10528;52.124;5.196;2023-04-25T12:41:07;2.47;;;1.02;;
20734;SDS011;10528;52.124;5.196;2023-04-25T12:43:34;6.47;;;0.90;;
20734;SDS011;10528;52.124;5.196;2023-04-25T12:46:01;3.78;;;1.58;;
20734;SDS011;10528;52.124;5.196;2023-04-25T12:48:29;5.45;;;0.80;;
20734;SDS011;10528;52.124;5.196;2023-04-25T12:50:56;3.22;;;0.88;;
20734;SDS011;10528;52.124;5.196;2023-04-25T12:53:23;4.45;;;1.30;;
20734;SDS011;10528;52.124;5.196;2023-04-25T12:55:50;2.85;;;0.90;;
20734;SDS011;10528;52.124;5.196;2023-04-25T12:58:17;4.93;;;1.42;;
20734;SDS011;10528;52.124;5.196;2023-04-25T13:00:46;2.40;;;0.85;;
20734;SDS011;10528;52.124;5.196;2023-04-25T13:03:14;3.28;;;0.90;;
20734;SDS011;10528;52.124;5.196;2023-04-25T13:05:41;3.08;;;0.73;;
20734;SDS011;10528;52.124;5.196;2023-04-25T13:08:08;4.82;;;1.00;;
20734;SDS011;10528;52.124;5.196;2023-04-25T13:10:35;2.55;;;0.85;;
20734;SDS011;10528;52.124;5.196;2023-04-25T13:13:04;3.28;;;0.85;;
20734;SDS011;10528;52.124;5.196;2023-04-25T13:15:31;3.13;;;1.05;;
20734;SDS011;10528;52.124;5.196;2023-04-25T13:17:58;2.45;;;0.77;;
20734;SDS011;10528;52.124;5.196;2023-04-25T13:20:25;2.78;;;0.90;;
20734;SDS011;10528;52.124;5.196;2023-04-25T13:22:52;2.42;;;0.70;;
20734;SDS011;10528;52.124;5.196;2023-04-25T13:25:19;3.60;;;0.95;;
20734;SDS011;10528;52.124;5.196;2023-04-25T13:27:47;6.07;;;1.10;;
20734;SDS011;10528;52.124;5.196;2023-04-25T13:30:14;4.57;;;0.90;;
20734;SDS011;10528;52.124;5.196;2023-04-25T13:32:41;4.70;;;1.23;;
20734;SDS011;10528;52.124;5.196;2023-04-25T13:35:09;5.10;;;1.33;;
20734;SDS011;10528;52.124;5.196;2023-04-25T13:37:39;5.13;;;1.10;;
20734;SDS011;10528;52.124;5.196;2023-04-25T13:40:08;5.05;;;1.35;;
20734;SDS011;10528;52.124;5.196;2023-04-25T13:42:37;5.90;;;1.10;;
20734;SDS011;10528;52.124;5.196;2023-04-25T13:45:05;4.22;;;1.15;;
20734;SDS011;10528;52.124;5.196;2023-04-25T13:47:33;4.72;;;1.27;;
20734;SDS011;10528;52.124;5.196;2023-04-25T13:50:01;5.43;;;1.40;;
20734;SDS011;10528;52.124;5.196;2023-04-25T13:52:31;5.70;;;1.08;;
20734;SDS011;10528;52.124;5.196;2023-04-25T13:54:58;5.40;;;1.02;;
20734;SDS011;10528;52.124;5.196;2023-04-25T13:57:26;4.80;;;1.10;;
20734;SDS011;10528;52.124;5.196;2023-04-25T13:59:53;3.38;;;1.02;;
20734;SDS011;10528;52.124;5.196;2023-04-25T14:02:20;4.25;;;1.20;;
20734;SDS011;10528;52.124;5.196;2023-04-25T14:04:47;5.03;;;1.23;;
20734;SDS011;10528;52.124;5.196;2023-04-25T14:07:14;6.90;;;1.52;;
20734;SDS011;10528;52.124;5.196;2023-04-25T14:09:45;4.93;;;0.77;;
20734;SDS011;10528;52.124;5.196;2023-04-25T14:12:12;7.93;;;1.42;;
20734;SDS011;10528;52.124;5.196;2023-04-25T14:14:39;6.97;;;1.30;;
20734;SDS011;10528;52.124;5.196;2023-04-25T14:17:06;7.55;;;1.63;;
20734;SDS011;10528;52.124;5.196;2023-04-25T14:19:34;4.32;;;1.10;;
20734;SDS011;10528;52.124;5.196;2023-04-25T14:22:01;8.60;;;1.40;;
20734;SDS011;10528;52.124;5.196;2023-04-25T14:24:28;5.57;;;1.10;;
20734;SDS011;10528;52.124;5.196;2023-04-25T14:26:55;5.50;;;1.02;;
20734;SDS011;10528;52.124;5.196;2023-04-25T14:29:22;5.00;;;1.25;;
20734;SDS011;10528;52.124;5.196;2023-04-25T14:31:49;4.60;;;1.20;;
20734;SDS011;10528;52.124;5.196;2023-04-25T14:34:16;5.38;;;1.30;;
20734;SDS011;10528;52.124;5.196;2023-04-25T14:36:43;6.45;;;1.20;;
20734;SDS011;10528;52.124;5.196;2023-04-25T14:39:10;4.32;;;1.00;;
20734;SDS011;10528;52.124;5.196;2023-04-25T14:41:40;4.57;;;1.30;;
20734;SDS011;10528;52.124;5.196;2023-04-25T14:44:07;5.23;;;1.30;;
20734;SDS011;10528;52.124;5.196;2023-04-25T14:46:34;5.75;;;1.40;;
20734;SDS011;10528;52.124;5.196;2023-04-25T14:49:02;3.85;;;0.80;;
20734;SDS011;10528;52.124;5.196;2023-04-25T14:51:29;4.90;;;1.15;;
20734;SDS011;10528;52.124;5.196;2023-04-25T14:53:57;5.22;;;1.55;;
20734;SDS011;10528;52.124;5.196;2023-04-25T14:56:24;3.63;;;1.00;;
20734;SDS011;10528;52.124;5.196;2023-04-25T14:58:51;4.70;;;0.90;;
20734;SDS011;10528;52.124;5.196;2023-04-25T15:01:17;4.03;;;0.80;;
20734;SDS011;10528;52.124;5.196;2023-04-25T15:03:47;5.13;;;1.00;;
20734;SDS011;10528;52.124;5.196;2023-04-25T15:06:14;5.60;;;1.13;;
20734;SDS011;10528;52.124;5.196;2023-04-25T15:08:41;2.17;;;0.80;;
20734;SDS011;10528;52.124;5.196;2023-04-25T15:11:08;6.43;;;1.25;;
20734;SDS011;10528;52.124;5.196;2023-04-25T15:13:37;4.25;;;1.02;;